createdAt,value
2019-05-30T00:00:17.706Z,101241.80
2019-05-30T00:02:43.415Z,101240.91
2019-05-30T00:05:13.042Z,101241.09
2019-05-30T00:07:42.511Z,101238.02
2019-05-30T00:10:12.594Z,101242.79
2019-05-30T00:12:42.069Z,101237.44
2019-05-30T00:15:11.683Z,101242.80
2019-05-30T00:17:41.236Z,101245.14
2019-05-30T00:20:10.923Z,101243.84
2019-05-30T00:22:40.416Z,101243.91
2019-05-30T00:25:10.023Z,101238.45
2019-05-30T00:27:39.585Z,101239.34
2019-05-30T00:30:24.074Z,101243.00
2019-05-30T00:32:41.973Z,101241.44
2019-05-30T00:35:11.897Z,101240.71
2019-05-30T00:37:42.888Z,101241.59
2019-05-30T00:40:12.579Z,101241.07
2019-05-30T00:42:42.124Z,101243.58
2019-05-30T00:45:20.767Z,101240.87
2019-05-30T00:47:43.313Z,101235.16
2019-05-30T00:50:12.913Z,101226.67
2019-05-30T00:52:42.474Z,101238.02
2019-05-30T00:55:12.151Z,101238.31
2019-05-30T00:57:41.637Z,101232.86
2019-05-30T01:00:12.251Z,101235.99
2019-05-30T01:02:41.748Z,101238.56
2019-05-30T01:05:11.364Z,101240.11
2019-05-30T01:07:40.918Z,101241.06
2019-05-30T01:10:11.031Z,101242.92
2019-05-30T01:12:40.544Z,101246.16
2019-05-30T01:15:11.510Z,101237.03
2019-05-30T01:17:40.979Z,101248.02
2019-05-30T01:20:11.232Z,101233.12
2019-05-30T01:22:40.715Z,101228.17
2019-05-30T01:25:10.606Z,101218.81
2019-05-30T01:27:40.098Z,101217.42
2019-05-30T01:30:10.688Z,101215.48
2019-05-30T01:32:40.181Z,101222.05
2019-05-30T01:35:09.997Z,101218.97
2019-05-30T01:37:39.474Z,101216.67
2019-05-30T01:40:09.896Z,101219.59
2019-05-30T01:42:59.856Z,101216.95
2019-05-30T01:45:29.496Z,101215.72
2019-05-30T01:48:00.012Z,101223.34
2019-05-30T01:50:29.617Z,101223.23
2019-05-30T01:53:00.311Z,101228.09
2019-05-30T01:55:29.862Z,101224.89
2019-05-30T01:58:01.410Z,101228.40
2019-05-30T02:00:39.932Z,101220.00
2019-05-30T02:03:10.183Z,101222.69
2019-05-30T02:05:39.777Z,101220.63
2019-05-30T02:08:10.168Z,101222.25
2019-05-30T02:10:40.003Z,101219.72
2019-05-30T02:13:09.976Z,101215.56
2019-05-30T02:15:39.730Z,101214.41
2019-05-30T02:18:10.061Z,101211.41
2019-05-30T02:20:39.908Z,101208.64
2019-05-30T02:23:28.860Z,101206.66
2019-05-30T02:25:58.363Z,101211.88
2019-05-30T02:28:27.812Z,101209.91
2019-05-30T02:30:57.319Z,101212.34
2019-05-30T02:33:26.801Z,101209.81
2019-05-30T02:35:56.280Z,101218.36
2019-05-30T02:38:25.830Z,101218.00
2019-05-30T02:40:55.376Z,101211.91
2019-05-30T02:43:24.848Z,101215.16
2019-05-30T02:45:54.381Z,101216.41
2019-05-30T02:48:23.897Z,101221.62
2019-05-30T02:50:53.370Z,101210.43
2019-05-30T02:53:22.856Z,101220.27
2019-05-30T02:55:52.338Z,101215.20
2019-05-30T02:58:21.866Z,101221.13
2019-05-30T03:00:51.375Z,101222.86
2019-05-30T03:03:22.977Z,101218.61
2019-05-30T03:05:52.500Z,101220.11
2019-05-30T03:08:22.043Z,101229.37
2019-05-30T03:10:51.740Z,101223.37
2019-05-30T03:13:22.067Z,101224.31
2019-05-30T03:15:51.607Z,101226.66
2019-05-30T03:18:21.101Z,101221.23
2019-05-30T03:20:50.630Z,101223.09
2019-05-30T03:23:39.544Z,101225.77
2019-05-30T03:26:10.836Z,101225.08
2019-05-30T03:28:40.383Z,101231.56
2019-05-30T03:31:21.180Z,101228.11
2019-05-30T03:33:42.879Z,101232.05
2019-05-30T03:36:23.699Z,101238.52
2019-05-30T03:38:43.861Z,101234.50
2019-05-30T03:41:13.515Z,101238.44
2019-05-30T03:43:43.052Z,101232.20
2019-05-30T03:46:17.236Z,101242.61
2019-05-30T03:48:49.808Z,101246.64
2019-05-30T03:51:21.509Z,101255.89
2019-05-30T03:53:51.450Z,101238.59
2019-05-30T03:56:34.597Z,101242.09
2019-05-30T03:59:13.040Z,101247.19
2019-05-30T04:01:59.016Z,101250.66
2019-05-30T04:04:33.235Z,101257.70
2019-05-30T04:07:12.011Z,101253.08
2019-05-30T04:09:44.109Z,101251.83
2019-05-30T04:12:43.680Z,101261.64
2019-05-30T04:15:33.442Z,101267.09
2019-05-30T04:18:03.086Z,101270.23
2019-05-30T04:20:32.906Z,101277.50
2019-05-30T04:23:02.543Z,101274.04
2019-05-30T04:25:32.035Z,101273.11
2019-05-30T04:28:01.491Z,101259.92
2019-05-30T04:30:31.045Z,101254.84
2019-05-30T04:33:17.174Z,101252.30
2019-05-30T04:35:31.738Z,101259.23
2019-05-30T04:38:01.198Z,101263.39
2019-05-30T04:40:32.402Z,101265.02
2019-05-30T04:43:01.868Z,101268.25
2019-05-30T04:45:31.353Z,101268.39
2019-05-30T04:48:00.822Z,101265.70
2019-05-30T04:50:30.393Z,101276.14
2019-05-30T04:52:59.849Z,101271.05
2019-05-30T04:55:29.319Z,101274.53
2019-05-30T04:57:58.812Z,101271.61
2019-05-30T05:00:28.427Z,101281.23
2019-05-30T05:02:57.891Z,101282.16
2019-05-30T05:05:27.446Z,101279.84
2019-05-30T05:07:56.920Z,101282.14
2019-05-30T05:10:26.461Z,101266.96
2019-05-30T05:12:55.945Z,101267.56
2019-05-30T05:15:25.522Z,101265.12
2019-05-30T05:17:55.082Z,101272.42
2019-05-30T05:20:24.546Z,101273.35
2019-05-30T05:22:54.009Z,101268.26
2019-05-30T05:25:23.631Z,101280.06
2019-05-30T05:28:13.579Z,101279.92
2019-05-30T05:30:43.323Z,101283.05
2019-05-30T05:33:12.810Z,101277.39
2019-05-30T05:35:42.280Z,101282.72
2019-05-30T05:38:11.759Z,101284.66
2019-05-30T05:40:41.250Z,101293.83
2019-05-30T05:43:10.716Z,101285.25
2019-05-30T05:45:40.179Z,101285.38
2019-05-30T05:48:09.652Z,101285.83
2019-05-30T05:50:39.130Z,101294.48
2019-05-30T05:53:08.693Z,101285.11
2019-05-30T05:55:38.147Z,101285.66
2019-05-30T05:58:07.811Z,101287.25
2019-05-30T06:00:37.285Z,101292.22
2019-05-30T06:03:06.752Z,101293.81
2019-05-30T06:05:44.378Z,101289.84
2019-05-30T06:08:07.544Z,101288.88
2019-05-30T06:10:37.040Z,101293.51
2019-05-30T06:13:06.594Z,101299.27
2019-05-30T06:15:36.075Z,101305.59
2019-05-30T06:18:05.767Z,101302.44
2019-05-30T06:20:35.324Z,101303.83
2019-05-30T06:23:04.895Z,101300.78
2019-05-30T06:25:34.377Z,101299.50
2019-05-30T06:28:03.839Z,101303.98
2019-05-30T06:30:33.349Z,101304.65
2019-05-30T06:33:02.811Z,101306.27
2019-05-30T06:35:32.450Z,101306.15
2019-05-30T06:38:02.018Z,101305.20
2019-05-30T06:40:32.256Z,101306.45
2019-05-30T06:43:01.925Z,101319.23
2019-05-30T06:45:31.542Z,101310.51
2019-05-30T06:48:01.053Z,101315.73
2019-05-30T06:50:30.918Z,101319.42
2019-05-30T06:53:00.445Z,101318.25
2019-05-30T06:55:29.914Z,101318.92
2019-05-30T06:57:59.492Z,101316.37
2019-05-30T07:00:29.916Z,101315.42
2019-05-30T07:02:59.569Z,101310.30
2019-05-30T07:05:30.457Z,101318.73
2019-05-30T07:08:00.358Z,101319.85
2019-05-30T07:10:31.115Z,101315.78
2019-05-30T07:13:00.652Z,101316.33
2019-05-30T07:15:31.174Z,101320.58
2019-05-30T07:18:00.914Z,101314.73
2019-05-30T07:20:31.664Z,101322.59
2019-05-30T07:23:01.211Z,101323.86
2019-05-30T07:25:31.873Z,101323.81
2019-05-30T07:28:01.552Z,101326.31
2019-05-30T07:30:32.041Z,101340.80
2019-05-30T07:33:01.647Z,101340.55
2019-05-30T07:35:32.062Z,101340.27
2019-05-30T07:38:01.822Z,101342.33
2019-05-30T07:40:31.320Z,101344.40
2019-05-30T07:43:00.800Z,101344.63
2019-05-30T07:45:31.078Z,101342.84
2019-05-30T07:48:00.643Z,101339.71
2019-05-30T07:50:30.477Z,101346.55
2019-05-30T07:53:00.059Z,101340.38
2019-05-30T07:55:30.929Z,101336.64
2019-05-30T07:58:00.662Z,101344.05
2019-05-30T08:00:31.404Z,101339.88
2019-05-30T08:03:01.101Z,101341.93
2019-05-30T08:05:30.689Z,101338.86
2019-05-30T08:08:00.221Z,101341.36
2019-05-30T08:10:50.568Z,101342.02
2019-05-30T08:13:20.122Z,101339.90
2019-05-30T08:15:49.597Z,101348.36
2019-05-30T08:18:19.341Z,101346.23
2019-05-30T08:20:48.828Z,101335.17
2019-05-30T08:23:18.295Z,101343.03
2019-05-30T08:25:47.836Z,101341.69
2019-05-30T08:28:17.435Z,101329.22
2019-05-30T08:30:46.891Z,101334.08
2019-05-30T08:33:16.495Z,101336.92
2019-05-30T08:35:49.957Z,101338.49
2019-05-30T08:38:17.281Z,101340.38
2019-05-30T08:40:46.779Z,101333.33
2019-05-30T08:43:16.237Z,101337.11
2019-05-30T08:45:45.726Z,101336.30
2019-05-30T08:48:15.228Z,101343.84
2019-05-30T08:50:44.918Z,101336.42
2019-05-30T08:53:14.475Z,101332.80
2019-05-30T08:55:44.389Z,101336.33
2019-05-30T08:58:13.951Z,101335.63
2019-05-30T09:00:43.440Z,101335.62
2019-05-30T09:03:12.988Z,101329.80
2019-05-30T09:05:58.181Z,101331.73
2019-05-30T09:08:14.010Z,101319.31
2019-05-30T09:10:44.393Z,101322.36
2019-05-30T09:13:13.950Z,101319.92
2019-05-30T09:15:45.179Z,101323.19
2019-05-30T09:18:14.920Z,101317.48
2019-05-30T09:20:45.288Z,101319.00
2019-05-30T09:23:15.151Z,101310.95
2019-05-30T09:25:46.972Z,101312.67
2019-05-30T09:28:16.029Z,101309.57
2019-05-30T09:30:46.480Z,101308.33
2019-05-30T09:33:16.231Z,101311.13
2019-05-30T09:35:47.065Z,101311.09
2019-05-30T09:38:16.721Z,101316.26
2019-05-30T09:40:47.525Z,101309.98
2019-05-30T09:43:17.116Z,101313.28
2019-05-30T09:45:46.668Z,101316.42
2019-05-30T09:48:16.232Z,101320.35
2019-05-30T09:50:46.804Z,101323.27
2019-05-30T09:53:16.524Z,101322.60
2019-05-30T09:55:46.240Z,101325.28
2019-05-30T09:58:15.908Z,101328.96
2019-05-30T10:00:47.226Z,101329.22
2019-05-30T10:03:16.958Z,101324.81
2019-05-30T10:05:47.033Z,101328.61
2019-05-30T10:08:16.971Z,101332.81
2019-05-30T10:10:47.754Z,101331.20
2019-05-30T10:13:17.515Z,101332.60
2019-05-30T10:15:48.203Z,101339.61
2019-05-30T10:18:18.178Z,101338.00
2019-05-30T10:20:48.217Z,101337.00
2019-05-30T10:23:19.000Z,101344.02
2019-05-30T10:25:49.539Z,101338.36
2019-05-30T10:28:19.183Z,101339.92
2019-05-30T10:30:53.631Z,101335.70
2019-05-30T10:33:20.689Z,101340.47
2019-05-30T10:35:51.505Z,101333.62
2019-05-30T10:38:21.320Z,101332.41
2019-05-30T10:40:52.141Z,101333.81
2019-05-30T10:43:22.070Z,101330.80
2019-05-30T10:45:53.270Z,101330.80
2019-05-30T10:48:23.049Z,101329.40
2019-05-30T10:50:52.548Z,101334.19
2019-05-30T10:53:22.035Z,101322.18
2019-05-30T10:55:53.057Z,101325.98
2019-05-30T10:58:22.827Z,101331.01
2019-05-30T11:00:57.862Z,101338.44
2019-05-30T11:03:28.694Z,101328.63
2019-05-30T11:06:28.505Z,101333.25
2019-05-30T11:09:00.778Z,101337.88
2019-05-30T11:11:30.267Z,101334.30
2019-05-30T11:13:59.770Z,101337.10
2019-05-30T11:16:29.292Z,101339.50
2019-05-30T11:18:58.833Z,101338.31
2019-05-30T11:21:28.321Z,101340.12
2019-05-30T11:23:58.330Z,101340.95
2019-05-30T11:26:28.215Z,101338.97
2019-05-30T11:28:58.648Z,101338.36
2019-05-30T11:31:28.420Z,101343.61
2019-05-30T11:33:59.102Z,101345.22
2019-05-30T11:36:28.673Z,101342.41
2019-05-30T11:38:59.209Z,101342.41
2019-05-30T11:41:28.966Z,101349.00
2019-05-30T11:43:59.654Z,101352.16
2019-05-30T11:46:29.719Z,101352.94
2019-05-30T11:49:00.058Z,101349.50
2019-05-30T11:51:29.764Z,101348.66
2019-05-30T11:54:00.834Z,101350.02
2019-05-30T11:56:30.490Z,101355.20
2019-05-30T11:59:00.192Z,101350.20
2019-05-30T12:01:29.795Z,101348.59
2019-05-30T12:04:00.685Z,101344.60
2019-05-30T12:06:30.336Z,101353.44
2019-05-30T12:09:01.033Z,101346.21
2019-05-30T12:11:30.739Z,101348.61
2019-05-30T12:14:01.486Z,101350.02
2019-05-30T12:16:31.550Z,101352.66
2019-05-30T12:19:02.734Z,101350.28
2019-05-30T12:21:32.255Z,101354.69
2019-05-30T12:24:02.595Z,101352.09
2019-05-30T12:26:33.991Z,101356.30
2019-05-30T12:29:03.839Z,101357.70
2019-05-30T12:31:33.434Z,101357.49
2019-05-30T12:34:02.934Z,101359.05
2019-05-30T12:36:32.508Z,101357.42
2019-05-30T12:39:08.655Z,101356.38
2019-05-30T12:41:38.270Z,101363.08
2019-05-30T12:44:07.874Z,101356.38
2019-05-30T12:46:37.416Z,101365.68
2019-05-30T12:49:06.990Z,101360.00
2019-05-30T12:51:36.542Z,101366.77
2019-05-30T12:54:06.837Z,101369.50
2019-05-30T12:56:36.440Z,101371.46
2019-05-30T12:59:07.110Z,101373.02
2019-05-30T13:01:36.703Z,101367.38
2019-05-30T13:04:07.346Z,101368.36
2019-05-30T13:06:36.897Z,101372.50
2019-05-30T13:09:09.227Z,101379.26
2019-05-30T13:11:39.419Z,101376.61
2019-05-30T13:14:09.080Z,101376.58
2019-05-30T13:16:38.672Z,101373.36
2019-05-30T13:19:08.264Z,101379.89
2019-05-30T13:21:37.836Z,101381.08
2019-05-30T13:24:07.456Z,101382.05
2019-05-30T13:26:36.950Z,101384.64
2019-05-30T13:29:06.563Z,101384.00
2019-05-30T13:31:36.147Z,101379.59
2019-05-30T13:34:07.032Z,101386.77
2019-05-30T13:36:36.745Z,101395.52
2019-05-30T13:39:08.051Z,101403.86
2019-05-30T13:41:37.589Z,101410.64
2019-05-30T13:44:09.399Z,101411.00
2019-05-30T13:46:38.287Z,101416.38
2019-05-30T13:49:08.766Z,101427.97
2019-05-30T13:51:38.351Z,101427.26
2019-05-30T13:54:07.810Z,101422.56
2019-05-30T13:56:37.301Z,101426.29
2019-05-30T13:59:07.976Z,101424.24
2019-05-30T14:01:37.532Z,101430.37
2019-05-30T14:04:08.148Z,101418.53
2019-05-30T14:06:37.841Z,101422.09
2019-05-30T14:09:08.549Z,101423.84
2019-05-30T14:11:38.224Z,101424.02
2019-05-30T14:14:08.833Z,101424.30
2019-05-30T14:16:38.459Z,101424.84
2019-05-30T14:19:10.809Z,101419.99
2019-05-30T14:21:39.187Z,101426.33
2019-05-30T14:24:09.470Z,101427.52
2019-05-30T14:26:38.956Z,101423.28
2019-05-30T14:29:09.761Z,101418.00
2019-05-30T14:31:39.973Z,101427.48
2019-05-30T14:34:10.217Z,101422.20
2019-05-30T14:36:39.750Z,101424.35
2019-05-30T14:39:09.424Z,101420.52
2019-05-30T14:41:39.041Z,101419.13
2019-05-30T14:44:08.705Z,101416.72
2019-05-30T14:46:38.185Z,101417.89
2019-05-30T14:49:08.607Z,101409.18
2019-05-30T14:51:38.238Z,101420.75
2019-05-30T14:54:08.854Z,101418.70
2019-05-30T14:56:38.535Z,101422.02
2019-05-30T14:59:08.946Z,101428.56
2019-05-30T15:01:38.546Z,101420.76
2019-05-30T15:04:09.132Z,101419.93
2019-05-30T15:06:38.719Z,101421.80
2019-05-30T15:09:20.719Z,101416.64
2019-05-30T15:11:39.643Z,101421.70
2019-05-30T15:14:09.174Z,101415.59
2019-05-30T15:16:38.644Z,101419.51
2019-05-30T15:19:08.204Z,101416.62
2019-05-30T15:21:37.690Z,101418.89
2019-05-30T15:24:07.739Z,101418.57
2019-05-30T15:26:37.364Z,101420.31
2019-05-30T15:29:07.935Z,101415.66
2019-05-30T15:31:37.631Z,101406.77
2019-05-30T15:34:08.379Z,101404.34
2019-05-30T15:36:37.964Z,101409.86
2019-05-30T15:39:09.169Z,101404.44
2019-05-30T15:41:38.693Z,101405.41
2019-05-30T15:44:09.398Z,101405.97
2019-05-30T15:46:39.404Z,101402.47
2019-05-30T15:49:10.114Z,101400.59
2019-05-30T15:51:39.662Z,101399.50
2019-05-30T15:54:09.357Z,101397.42
2019-05-30T15:56:38.908Z,101406.13
2019-05-30T15:59:09.488Z,101408.25
2019-05-30T16:01:39.208Z,101404.77
2019-05-30T16:04:09.940Z,101402.87
2019-05-30T16:06:39.510Z,101393.78
2019-05-30T16:09:09.153Z,101398.27
2019-05-30T16:11:40.670Z,101395.70
2019-05-30T16:14:11.133Z,101391.34
2019-05-30T16:16:40.759Z,101396.34
2019-05-30T16:19:29.590Z,101395.91
2019-05-30T16:21:59.121Z,101393.52
2019-05-30T16:24:29.563Z,101390.71
2019-05-30T16:26:59.165Z,101391.50
2019-05-30T16:29:29.297Z,101392.69
2019-05-30T16:31:58.810Z,101390.08
2019-05-30T16:34:28.307Z,101388.83
2019-05-30T16:36:57.819Z,101391.61
2019-05-30T16:39:27.315Z,101395.19
2019-05-30T16:41:56.880Z,101390.69
2019-05-30T16:44:26.741Z,101396.23
2019-05-30T16:46:56.373Z,101391.19
2019-05-30T16:49:26.902Z,101389.36
2019-05-30T16:51:56.473Z,101390.13
2019-05-30T16:54:26.012Z,101391.11
2019-05-30T16:56:55.507Z,101387.09
2019-05-30T16:59:25.005Z,101391.66
2019-05-30T17:01:57.820Z,101395.86
2019-05-30T17:04:25.759Z,101396.47
2019-05-30T17:06:56.504Z,101394.25
2019-05-30T17:09:25.976Z,101392.42
2019-05-30T17:11:55.471Z,101390.59
2019-05-30T17:14:25.949Z,101390.38
2019-05-30T17:16:55.453Z,101390.17
2019-05-30T17:19:24.956Z,101390.57
2019-05-30T17:21:54.510Z,101384.15
2019-05-30T17:24:25.225Z,101387.77
2019-05-30T17:26:54.826Z,101384.36
2019-05-30T17:29:25.643Z,101387.80
2019-05-30T17:31:55.422Z,101390.59
2019-05-30T17:34:26.052Z,101387.43
2019-05-30T17:36:55.617Z,101385.81
2019-05-30T17:39:25.120Z,101383.59
2019-05-30T17:41:54.604Z,101386.19
2019-05-30T17:44:25.174Z,101376.59
2019-05-30T17:46:54.649Z,101377.02
2019-05-30T17:49:24.128Z,101386.19
2019-05-30T17:51:53.731Z,101379.42
2019-05-30T17:54:23.845Z,101383.98
2019-05-30T17:56:53.455Z,101391.48
2019-05-30T17:59:24.259Z,101386.92
2019-05-30T18:01:54.003Z,101386.56
2019-05-30T18:04:24.474Z,101395.25
2019-05-30T18:06:54.070Z,101393.96
2019-05-30T18:09:24.803Z,101385.86
2019-05-30T18:11:54.473Z,101390.09
2019-05-30T18:14:25.060Z,101393.08
2019-05-30T18:16:54.777Z,101383.13
2019-05-30T18:19:25.246Z,101388.19
2019-05-30T18:21:54.986Z,101384.97
2019-05-30T18:24:25.586Z,101386.55
2019-05-30T18:26:55.124Z,101387.30
2019-05-30T18:29:25.960Z,101391.83
2019-05-30T18:31:55.658Z,101395.34
2019-05-30T18:34:26.235Z,101390.87
2019-05-30T18:36:55.877Z,101385.16
2019-05-30T18:39:26.481Z,101388.66
2019-05-30T18:41:56.192Z,101386.95
2019-05-30T18:44:28.835Z,101391.87
2019-05-30T18:46:57.445Z,101385.78
2019-05-30T18:49:27.167Z,101381.45
2019-05-30T18:51:56.653Z,101382.95
2019-05-30T18:54:26.582Z,101380.69
2019-05-30T18:56:56.087Z,101380.19
2019-05-30T18:59:26.835Z,101371.99
2019-05-30T19:01:56.421Z,101378.28
2019-05-30T19:04:26.001Z,101379.95
2019-05-30T19:06:55.517Z,101375.78
2019-05-30T19:09:25.064Z,101386.84
2019-05-30T19:11:54.609Z,101392.49
2019-05-30T19:14:24.116Z,101404.56
2019-05-30T19:16:53.616Z,101403.21
2019-05-30T19:19:23.130Z,101404.05
2019-05-30T19:21:52.603Z,101411.33
2019-05-30T19:24:22.097Z,101414.98
2019-05-30T19:26:51.677Z,101423.27
2019-05-30T19:29:21.181Z,101421.94
2019-05-30T19:31:50.648Z,101429.03
2019-05-30T19:34:20.142Z,101427.30
2019-05-30T19:36:49.774Z,101425.78
2019-05-30T19:39:19.308Z,101432.86
2019-05-30T19:41:56.747Z,101436.55
2019-05-30T19:44:19.983Z,101448.03
2019-05-30T19:46:49.465Z,101445.52
2019-05-30T19:49:18.996Z,101447.66
2019-05-30T19:51:48.494Z,101452.98
2019-05-30T19:54:18.039Z,101443.03
2019-05-30T19:56:47.538Z,101446.34
2019-05-30T19:59:17.094Z,101445.42
2019-05-30T20:01:46.746Z,101460.48
2019-05-30T20:04:16.337Z,101458.38
2019-05-30T20:06:45.817Z,101457.63
2019-05-30T20:09:15.409Z,101459.09
2019-05-30T20:11:59.905Z,101463.36
2019-05-30T20:14:16.164Z,101463.20
2019-05-30T20:16:45.720Z,101454.42
2019-05-30T20:19:15.233Z,101464.05
2019-05-30T20:21:44.712Z,101465.86
2019-05-30T20:24:14.257Z,101469.50
2019-05-30T20:26:43.742Z,101470.97
2019-05-30T20:29:13.365Z,101468.02
2019-05-30T20:31:43.677Z,101469.81
2019-05-30T20:34:13.536Z,101472.31
2019-05-30T20:36:43.055Z,101475.95
2019-05-30T20:39:12.539Z,101485.39
2019-05-30T20:41:43.201Z,101480.54
2019-05-30T20:44:12.807Z,101484.66
2019-05-30T20:46:43.240Z,101485.15
2019-05-30T20:49:12.949Z,101483.66
2019-05-30T20:51:43.431Z,101485.55
2019-05-30T20:54:13.190Z,101483.93
2019-05-30T20:56:44.105Z,101482.91
2019-05-30T20:59:13.973Z,101489.43
2019-05-30T21:01:43.824Z,101498.37
2019-05-30T21:04:13.480Z,101497.69
2019-05-30T21:06:44.428Z,101502.82
2019-05-30T21:09:27.731Z,101505.38
2019-05-30T21:11:46.734Z,101503.77
2019-05-30T21:14:18.562Z,101503.31
2019-05-30T21:16:51.735Z,101501.24
2019-05-30T21:19:21.834Z,101503.12
2019-05-30T21:21:51.285Z,101504.79
2019-05-30T21:24:20.786Z,101506.64
2019-05-30T21:26:50.264Z,101512.70
2019-05-30T21:29:19.785Z,101509.92
2019-05-30T21:31:49.293Z,101517.16
2019-05-30T21:34:19.129Z,101513.95
2019-05-30T21:36:48.667Z,101519.33
2019-05-30T21:39:18.216Z,101521.92
2019-05-30T21:41:48.553Z,101522.73
2019-05-30T21:44:18.063Z,101525.33
2019-05-30T21:46:48.866Z,101529.89
2019-05-30T21:49:18.530Z,101531.08
2019-05-30T21:51:48.059Z,101529.45
2019-05-30T21:54:17.525Z,101535.03
2019-05-30T21:56:48.313Z,101530.88
2019-05-30T21:59:18.016Z,101537.85
2019-05-30T22:01:48.648Z,101539.79
2019-05-30T22:04:18.336Z,101537.84
2019-05-30T22:06:48.933Z,101539.48
2019-05-30T22:09:18.581Z,101539.72
2019-05-30T22:11:48.074Z,101538.33
2019-05-30T22:14:17.544Z,101534.50
2019-05-30T22:16:47.935Z,101541.09
2019-05-30T22:19:17.642Z,101540.30
2019-05-30T22:21:48.086Z,101538.91
2019-05-30T22:24:17.708Z,101543.65
2019-05-30T22:26:48.241Z,101542.48
2019-05-30T22:29:18.029Z,101536.46
2019-05-30T22:31:48.582Z,101538.31
2019-05-30T22:34:18.118Z,101538.31
2019-05-30T22:36:48.838Z,101535.52
2019-05-30T22:39:18.450Z,101532.94
2019-05-30T22:41:48.008Z,101527.97
2019-05-30T22:44:17.510Z,101534.51
2019-05-30T22:46:48.044Z,101539.13
2019-05-30T22:49:17.658Z,101538.55
2019-05-30T22:51:47.150Z,101540.16
2019-05-30T22:54:16.594Z,101534.00
2019-05-30T22:56:47.246Z,101536.99
2019-05-30T22:59:16.822Z,101535.82
2019-05-30T23:01:46.911Z,101532.11
2019-05-30T23:04:16.471Z,101528.39
2019-05-30T23:06:46.286Z,101537.17
2019-05-30T23:09:15.964Z,101531.70
2019-05-30T23:11:45.618Z,101528.31
2019-05-30T23:14:15.100Z,101525.89
2019-05-30T23:16:44.584Z,101531.30
2019-05-30T23:19:14.072Z,101534.29
2019-05-30T23:21:43.549Z,101533.34
2019-05-30T23:24:13.040Z,101536.56
2019-05-30T23:26:42.601Z,101533.41
2019-05-30T23:29:12.080Z,101531.67
2019-05-30T23:31:41.623Z,101536.27
2019-05-30T23:34:11.087Z,101536.48
2019-05-30T23:36:40.576Z,101533.08
2019-05-30T23:39:10.176Z,101531.57
2019-05-30T23:41:39.666Z,101538.95
2019-05-30T23:44:11.727Z,101537.70
2019-05-30T23:46:40.354Z,101537.22
2019-05-30T23:49:09.855Z,101535.47
2019-05-30T23:51:39.342Z,101536.23
2019-05-30T23:54:08.833Z,101535.28
2019-05-30T23:56:41.965Z,101532.94
2019-05-30T23:59:09.495Z,101539.16
